Time;durP1;ratioP1;P1;durP2;ratioP2;P2;SDS_P1;SDS_P2;PMS_P1;PMS_P2;Temp;Humidity;BMP_temperature;BMP_pressure;BME280_temperature;BME280_humidity;BME280_pressure;Samples;Min_cycle;Max_cycle;Signal;HPM_P1;HPM_P2
2020/06/30 00:01:31;;;;;;;2.2;1;;;;;;;17.4;77.67676;937.4472;;;;
2020/06/30 00:03:57;;;;;;;2.5;1.1;;;;;;;17.25;78.80078;937.3773;;;;
2020/06/30 00:06:38;;;;;;;2.4;0.9;;;;;;;17.17;77.16211;937.3575;;;;
2020/06/30 00:09:05;;;;;;;2.5;1;;;;;;;16.96;78.06348;937.3655;;;;
2020/06/30 00:11:31;;;;;;;1.2;0.9;;;;;;;17.09;77.92578;937.3564;;;;
2020/06/30 00:13:56;;;;;;;1.2;0.9;;;;;;;17.05;77.47754;937.3033;;;;
2020/06/30 00:16:21;;;;;;;3.4;1;;;;;;;17.01;78.19922;937.3398;;;;
2020/06/30 00:18:46;;;;;;;3.7;1;;;;;;;17.09;77.48145;937.3027;;;;
2020/06/30 00:21:12;;;;;;;2.3;1.1;;;;;;;17.14;77.99023;937.3459;;;;
2020/06/30 00:23:37;;;;;;;4.4;1.1;;;;;;;17.21;77.52734;937.3689;;;;
2020/06/30 00:26:02;;;;;;;2.5;1.1;;;;;;;17.1;78.27344;937.4006;;;;
2020/06/30 00:28:29;;;;;;;1.9;1.1;;;;;;;17.11;77.76465;937.353;;;;
2020/06/30 00:30:54;;;;;;;4.6;1.1;;;;;;;17.1;77.65918;937.3306;;;;
2020/06/30 00:33:20;;;;;;;2.4;0.9;;;;;;;17.03;77.50684;937.3069;;;;
2020/06/30 00:35:47;;;;;;;1.1;0.9;;;;;;;17.07;77.61914;937.278;;;;
2020/06/30 00:38:12;;;;;;;2.9;0.9;;;;;;;17.09;78.19043;937.3582;;;;
2020/06/30 00:40:37;;;;;;;2.7;1;;;;;;;17.13;78.82422;937.3574;;;;
2020/06/30 00:43:03;;;;;;;3.4;0.9;;;;;;;17.15;78.52637;937.3417;;;;
2020/06/30 00:45:31;;;;;;;4.3;0.9;;;;;;;17.02;78.39746;937.3091;;;;
2020/06/30 00:47:57;;;;;;;3.4;0.9;;;;;;;16.83;78.8623;937.2858;;;;
2020/06/30 00:50:22;;;;;;;2.3;1;;;;;;;16.79;77.87109;937.2274;;;;
2020/06/30 00:52:49;;;;;;;4.3;1.2;;;;;;;16.77;77.84473;937.2469;;;;
2020/06/30 00:55:14;;;;;;;2.6;1.1;;;;;;;16.78;77.51074;937.295;;;;
2020/06/30 00:57:39;;;;;;;2.2;1.2;;;;;;;16.87;78.80078;937.2633;;;;
2020/06/30 01:00:04;;;;;;;4.2;0.8;;;;;;;16.97;78.01855;937.2971;;;;
2020/06/30 01:02:29;;;;;;;2.5;0.9;;;;;;;17.06;77.75488;937.2058;;;;
2020/06/30 01:04:55;;;;;;;5.3;1.2;;;;;;;17.11;77.69531;937.2355;;;;
2020/06/30 01:07:20;;;;;;;2.2;1;;;;;;;17.14;77.5498;937.2413;;;;
2020/06/30 01:09:45;;;;;;;2.2;0.9;;;;;;;17.1;77.11426;937.2855;;;;
2020/06/30 01:12:10;;;;;;;1.8;1;;;;;;;16.98;76.96582;937.2325;;;;
2020/06/30 01:14:36;;;;;;;5.6;1.3;;;;;;;17.02;77.7832;937.2893;;;;
2020/06/30 01:17:01;;;;;;;3.7;1.1;;;;;;;17.05;78.11426;937.2606;;;;
2020/06/30 01:19:28;;;;;;;2.9;1;;;;;;;17.1;78.4834;937.267;;;;
2020/06/30 01:21:53;;;;;;;2;0.8;;;;;;;16.99;77.12988;937.2758;;;;
2020/06/30 01:24:18;;;;;;;2.1;0.9;;;;;;;16.93;77.10742;937.2133;;;;
2020/06/30 01:26:43;;;;;;;3.3;0.9;;;;;;;16.95;78.03906;937.1847;;;;
2020/06/30 01:29:09;;;;;;;2.8;1.2;;;;;;;16.98;78.34473;937.1955;;;;
2020/06/30 01:31:34;;;;;;;6;1.1;;;;;;;16.99;77.87305;937.2186;;;;
2020/06/30 01:33:59;;;;;;;2.2;1.3;;;;;;;17.06;77.77832;937.1703;;;;
2020/06/30 01:36:24;;;;;;;2.5;1;;;;;;;17.03;77.95898;937.1725;;;;
2020/06/30 01:38:49;;;;;;;4.3;1.2;;;;;;;17.06;78.29004;937.1816;;;;
2020/06/30 01:41:15;;;;;;;2.3;1.3;;;;;;;16.99;77.03711;937.1641;;;;
2020/06/30 01:43:40;;;;;;;2.5;1;;;;;;;16.99;77.68652;937.2235;;;;
2020/06/30 01:46:07;;;;;;;2;1;;;;;;;16.69;76.46387;937.1558;;;;
2020/06/30 01:48:32;;;;;;;3.7;1.1;;;;;;;16.48;77.99023;937.1672;;;;
2020/06/30 01:51:02;;;;;;;1.9;1;;;;;;;16.32;78.67871;937.1138;;;;
2020/06/30 01:53:27;;;;;;;2;1.1;;;;;;;16.24;79.34668;937.1656;;;;
2020/06/30 01:55:52;;;;;;;1.9;1;;;;;;;16.38;79.10449;937.1588;;;;
2020/06/30 01:58:17;;;;;;;3.2;1;;;;;;;16.38;78.97949;937.0904;;;;
2020/06/30 02:00:49;;;;;;;1.8;0.8;;;;;;;16.47;78.77441;937.1625;;;;
2020/06/30 02:03:13;;;;;;;4.5;1.4;;;;;;;16.61;79.50488;937.13;;;;
2020/06/30 02:05:40;;;;;;;1.5;0.9;;;;;;;16.71;78.44727;937.1603;;;;
2020/06/30 02:08:09;;;;;;;5.5;1.1;;;;;;;16.73;78.01074;937.1744;;;;
2020/06/30 02:10:35;;;;;;;3.7;1;;;;;;;16.74;78.04785;937.1509;;;;
2020/06/30 02:13:00;;;;;;;2.6;1.1;;;;;;;16.73;78.03516;937.1036;;;;
2020/06/30 02:15:28;;;;;;;3.6;1.2;;;;;;;16.63;78.71094;937.1677;;;;
2020/06/30 02:17:55;;;;;;;3.4;1.3;;;;;;;16.55;79.76074;937.1389;;;;
2020/06/30 02:20:21;;;;;;;4.1;1.3;;;;;;;16.69;79.12695;937.1108;;;;
2020/06/30 02:22:46;;;;;;;3.4;1.2;;;;;;;16.76;79.12695;937.1225;;;;
2020/06/30 02:25:11;;;;;;;2;1;;;;;;;16.81;78.56934;937.0952;;;;
2020/06/30 02:27:37;;;;;;;2.4;1;;;;;;;16.85;77.84766;937.0972;;;;
2020/06/30 02:30:02;;;;;;;2.2;1;;;;;;;16.9;78.22656;937.09;;;;
2020/06/30 02:32:29;;;;;;;1.6;0.9;;;;;;;16.95;77.98145;937.1228;;;;
2020/06/30 02:34:54;;;;;;;1.9;1;;;;;;;16.95;77.5752;937.0705;;;;
2020/06/30 02:37:22;;;;;;;2.1;0.9;;;;;;;16.88;77.60938;937.1119;;;;
2020/06/30 02:39:47;;;;;;;2.3;1;;;;;;;16.74;77.24902;937.1147;;;;
2020/06/30 02:42:12;;;;;;;2.4;0.9;;;;;;;16.79;77.46582;937.1042;;;;
2020/06/30 02:44:38;;;;;;;1.7;1;;;;;;;16.75;78.01367;936.9852;;;;
2020/06/30 02:47:03;;;;;;;2.3;0.9;;;;;;;16.75;77.97852;937.101;;;;
2020/06/30 02:49:29;;;;;;;3.6;1.1;;;;;;;16.76;77.94531;937.133;;;;
2020/06/30 02:51:54;;;;;;;1.3;1;;;;;;;16.56;78.18945;937.1627;;;;
2020/06/30 02:54:20;;;;;;;3.7;1.7;;;;;;;16.48;79.15723;937.1447;;;;
2020/06/30 02:56:45;;;;;;;3.2;1.2;;;;;;;16.55;79.14746;937.1316;;;;
2020/06/30 02:59:11;;;;;;;1.5;0.9;;;;;;;16.57;78.72363;937.087;;;;
2020/06/30 03:01:36;;;;;;;3.5;1.1;;;;;;;16.62;78.30371;937.1501;;;;
2020/06/30 03:04:06;;;;;;;1.8;1.1;;;;;;;16.58;78.09863;937.1175;;;;
2020/06/30 03:06:37;;;;;;;4.1;1.2;;;;;;;16.53;78.02148;937.1721;;;;
2020/06/30 03:09:06;;;;;;;3.3;1;;;;;;;16.5;78.08398;937.1823;;;;
2020/06/30 03:11:31;;;;;;;5.7;1.2;;;;;;;16.54;78.08203;937.1333;;;;
2020/06/30 03:13:57;;;;;;;2.2;1.1;;;;;;;16.61;79.76074;937.1595;;;;
2020/06/30 03:16:22;;;;;;;3.4;1.3;;;;;;;16.63;78.74512;937.2159;;;;
2020/06/30 03:18:48;;;;;;;3.2;1.2;;;;;;;16.65;78.12305;937.2445;;;;
2020/06/30 03:21:13;;;;;;;1.9;1.2;;;;;;;16.61;78.04785;937.1306;;;;
2020/06/30 03:23:40;;;;;;;1.7;1.1;;;;;;;16.65;79.07227;937.2195;;;;
2020/06/30 03:26:05;;;;;;;4;1.1;;;;;;;16.69;79.12695;937.1671;;;;
2020/06/30 03:28:30;;;;;;;3.5;1;;;;;;;16.69;78.83789;937.1983;;;;
2020/06/30 03:31:01;;;;;;;2.4;1.1;;;;;;;16.75;78.22168;937.2087;;;;
2020/06/30 03:33:30;;;;;;;2.3;1.1;;;;;;;16.71;77.76367;937.2383;;;;
2020/06/30 03:35:56;;;;;;;1.8;0.9;;;;;;;16.66;77.60547;937.1808;;;;
2020/06/30 03:38:20;;;;;;;1.9;0.9;;;;;;;16.72;77.22168;937.2228;;;;
2020/06/30 03:40:45;;;;;;;4.4;0.8;;;;;;;16.54;76.87695;937.2628;;;;
2020/06/30 03:43:11;;;;;;;2.9;0.9;;;;;;;16.49;76.52051;937.2483;;;;
2020/06/30 03:45:39;;;;;;;2.3;0.9;;;;;;;16.45;77.48633;937.3203;;;;
2020/06/30 03:48:04;;;;;;;4.5;1;;;;;;;16.47;77.47754;937.3499;;;;
2020/06/30 03:50:31;;;;;;;1.8;1.2;;;;;;;16.08;79.11035;937.3121;;;;
2020/06/30 03:52:56;;;;;;;2.8;1;;;;;;;16.03;79.71191;937.324;;;;
2020/06/30 03:55:24;;;;;;;4.5;1.1;;;;;;;16.16;80.33789;937.3625;;;;
2020/06/30 03:57:49;;;;;;;2.9;1;;;;;;;16.34;79.64258;937.3538;;;;
2020/06/30 04:02:31;;;;;;;1;0.8;;;;;;;16.62;78.46582;937.4305;;;;
2020/06/30 04:04:56;;;;;;;2;1.1;;;;;;;16.73;78.14941;937.4453;;;;
2020/06/30 04:07:23;;;;;;;5.6;1.3;;;;;;;16.75;77.75879;937.4339;;;;
2020/06/30 04:09:48;;;;;;;3.7;1.4;;;;;;;16.87;78.56934;937.4691;;;;
2020/06/30 04:12:16;;;;;;;4.5;1.2;;;;;;;16.95;77.71484;937.459;;;;
2020/06/30 04:14:41;;;;;;;4.2;1.4;;;;;;;17.02;78.4209;937.4942;;;;
2020/06/30 04:17:09;;;;;;;6;1.4;;;;;;;17.1;78.04297;937.485;;;;
2020/06/30 04:19:34;;;;;;;5;1.1;;;;;;;17.14;76.2627;937.4844;;;;
2020/06/30 04:22:01;;;;;;;3.8;1.3;;;;;;;17.12;75.96973;937.4751;;;;
2020/06/30 04:24:26;;;;;;;2.7;1;;;;;;;16.88;76.73828;937.4877;;;;
2020/06/30 04:26:54;;;;;;;5.3;1.4;;;;;;;16.95;76.90137;937.505;;;;
2020/06/30 04:29:18;;;;;;;7.1;1.3;;;;;;;16.98;77.33691;937.4875;;;;
2020/06/30 04:31:44;;;;;;;6.6;1.9;;;;;;;17.04;78.48242;937.4941;;;;
2020/06/30 04:34:14;;;;;;;5.6;1.6;;;;;;;17.14;78.03809;937.51;;;;
2020/06/30 04:36:39;;;;;;;4;1.6;;;;;;;17.16;76.71777;937.5129;;;;
2020/06/30 04:39:05;;;;;;;4;1.5;;;;;;;17.19;76.36621;937.4431;;;;
2020/06/30 04:41:30;;;;;;;1.6;1.2;;;;;;;17;76.11133;937.4437;;;;
2020/06/30 04:43:56;;;;;;;6.5;1.6;;;;;;;17.02;75.99902;937.4647;;;;
2020/06/30 04:46:21;;;;;;;4.2;1.2;;;;;;;17.06;76.5498;937.431;;;;
2020/06/30 04:48:50;;;;;;;3.7;1.2;;;;;;;17.13;76.25098;937.4572;;;;
2020/06/30 04:51:16;;;;;;;3.2;1.3;;;;;;;17.12;76.35254;937.4171;;;;
2020/06/30 04:53:42;;;;;;;4.6;1.3;;;;;;;17.17;76.44434;937.4081;;;;
2020/06/30 04:56:07;;;;;;;8.1;1.4;;;;;;;17.3;76.28125;937.4053;;;;
2020/06/30 04:58:33;;;;;;;9.2;1.7;;;;;;;17.46;75.82031;937.4567;;;;
2020/06/30 05:00:58;;;;;;;7.2;1.2;;;;;;;17.68;75.34863;937.4355;;;;
2020/06/30 05:03:28;;;;;;;5.3;1.4;;;;;;;17.88;74.4541;937.4423;;;;
2020/06/30 05:05:53;;;;;;;4.3;1.3;;;;;;;17.98;73.47168;937.4846;;;;
2020/06/30 05:08:20;;;;;;;5.3;1.4;;;;;;;18.05;74.49316;937.4417;;;;
2020/06/30 05:10:45;;;;;;;8.3;1.4;;;;;;;18.26;73.82031;937.498;;;;
2020/06/30 05:13:12;;;;;;;8.1;1.2;;;;;;;18.53;71.87793;937.4883;;;;
2020/06/30 05:15:37;;;;;;;8.8;1.2;;;;;;;18.81;69.50293;937.3816;;;;
2020/06/30 05:18:04;;;;;;;4.1;1.2;;;;;;;18.89;69.74707;937.4123;;;;
2020/06/30 05:20:29;;;;;;;3.2;1.1;;;;;;;19.05;68.41016;937.4345;;;;
2020/06/30 05:22:57;;;;;;;5;1.4;;;;;;;18.81;68.81641;937.4364;;;;
2020/06/30 05:25:22;;;;;;;3.8;1.1;;;;;;;18.31;70.44727;937.4459;;;;
2020/06/30 05:27:49;;;;;;;4.6;1.1;;;;;;;17.8;72.19824;937.4646;;;;
2020/06/30 05:30:14;;;;;;;5.6;1.2;;;;;;;17.69;73.39844;937.4587;;;;
2020/06/30 05:32:43;;;;;;;3.5;1;;;;;;;17.93;74.72852;937.4366;;;;
2020/06/30 05:35:08;;;;;;;4.4;1;;;;;;;18.17;72.49219;937.3546;;;;
2020/06/30 05:37:34;;;;;;;3.2;1.2;;;;;;;18.2;72.57813;937.3555;;;;
2020/06/30 05:39:59;;;;;;;1.6;0.8;;;;;;;18.39;70.48242;937.3564;;;;
2020/06/30 05:42:25;;;;;;;1.9;0.9;;;;;;;18.64;71.61426;937.3477;;;;
2020/06/30 05:44:50;;;;;;;1.8;0.8;;;;;;;18.84;69.19336;937.2713;;;;
2020/06/30 05:47:17;;;;;;;2.1;0.9;;;;;;;19.09;69.31445;937.3156;;;;
2020/06/30 05:49:42;;;;;;;1.5;0.9;;;;;;;19.32;67.54395;937.2999;;;;
2020/06/30 05:52:10;;;;;;;1.8;0.9;;;;;;;19.39;67.3457;937.2986;;;;
2020/06/30 05:54:35;;;;;;;5.3;1.1;;;;;;;19.44;66.57129;937.2307;;;;
2020/06/30 05:57:00;;;;;;;3.6;1.1;;;;;;;19.4;67.88281;937.2977;;;;
2020/06/30 05:59:26;;;;;;;2.9;1.1;;;;;;;19.57;68.23535;937.2445;;;;
2020/06/30 06:01:50;;;;;;;6.2;1.4;;;;;;;19.79;68.39746;937.2508;;;;
2020/06/30 06:04:15;;;;;;;5;1.2;;;;;;;20.1;67.1377;937.2517;;;;
2020/06/30 06:06:40;;;;;;;3.1;1.2;;;;;;;21.52;60.23633;937.2684;;;;
2020/06/30 06:09:05;;;;;;;5.2;1.1;;;;;;;23.63;53.78125;937.279;;;;
2020/06/30 06:11:34;;;;;;;2.9;0.9;;;;;;;24.41;50.41211;937.2221;;;;
2020/06/30 06:13:59;;;;;;;3.6;1.1;;;;;;;24.78;49.35547;937.1829;;;;
2020/06/30 06:16:28;;;;;;;7.2;1.1;;;;;;;25.07;49.45898;937.1431;;;;
2020/06/30 06:18:53;;;;;;;5.7;0.9;;;;;;;26.2;48.15332;937.1722;;;;
2020/06/30 06:21:18;;;;;;;4.2;1;;;;;;;26.63;44.55176;937.0865;;;;
2020/06/30 06:23:43;;;;;;;7;1;;;;;;;26.77;45.61914;937.0894;;;;
2020/06/30 06:26:10;;;;;;;5.3;0.9;;;;;;;28.04;43.88281;937.0123;;;;
2020/06/30 06:28:35;;;;;;;4.6;0.9;;;;;;;28.58;41.03418;936.9911;;;;
2020/06/30 06:31:05;;;;;;;4.7;0.9;;;;;;;28.41;40.79297;937.0023;;;;
2020/06/30 06:33:34;;;;;;;1.4;0.7;;;;;;;27.62;41.05469;937.0114;;;;
2020/06/30 06:35:59;;;;;;;5.8;1.1;;;;;;;27.27;44.02148;937.0027;;;;
2020/06/30 06:38:24;;;;;;;6.8;1;;;;;;;27.01;42.57324;936.9462;;;;
2020/06/30 06:40:50;;;;;;;3.5;0.9;;;;;;;26.76;43.29688;936.9822;;;;
2020/06/30 06:43:16;;;;;;;5.2;1.2;;;;;;;27.12;45.74902;936.8682;;;;
2020/06/30 06:45:42;;;;;;;4.1;0.9;;;;;;;27.84;42.64063;936.8465;;;;
2020/06/30 06:48:08;;;;;;;3.1;0.8;;;;;;;28.62;41.2168;936.7733;;;;
2020/06/30 06:50:33;;;;;;;4.1;0.8;;;;;;;29.76;41.18945;936.8259;;;;
2020/06/30 06:52:58;;;;;;;1.6;0.6;;;;;;;29.94;40.60938;936.8437;;;;
2020/06/30 06:55:23;;;;;;;3.3;0.7;;;;;;;30.8;34.77051;936.8069;;;;
2020/06/30 06:57:49;;;;;;;3.4;0.7;;;;;;;32.29;33.60059;936.7544;;;;
2020/06/30 07:00:14;;;;;;;0.9;0.5;;;;;;;32.81;32.73926;936.7321;;;;
2020/06/30 07:02:42;;;;;;;2.3;0.6;;;;;;;33.29;31.11523;936.7361;;;;
2020/06/30 07:05:07;;;;;;;1.3;0.5;;;;;;;31.82;35.5918;936.7404;;;;
2020/06/30 07:07:32;;;;;;;1.5;0.5;;;;;;;32.91;31.59473;936.7216;;;;
2020/06/30 07:09:57;;;;;;;1.8;0.5;;;;;;;32.26;34.81055;936.673;;;;
2020/06/30 07:12:22;;;;;;;1.2;0.5;;;;;;;32.29;33.63672;936.666;;;;
2020/06/30 07:14:48;;;;;;;1.1;0.5;;;;;;;32.23;32.94922;936.6319;;;;
2020/06/30 07:17:13;;;;;;;2.4;0.6;;;;;;;31.99;34.80176;936.6006;;;;
2020/06/30 07:19:39;;;;;;;2.6;0.7;;;;;;;31.77;35.62305;936.6317;;;;
2020/06/30 07:22:04;;;;;;;2.6;0.8;;;;;;;32.25;35.98438;936.6091;;;;
2020/06/30 07:24:30;;;;;;;3.5;1;;;;;;;33.29;33.4707;936.5403;;;;
2020/06/30 07:26:55;;;;;;;2.5;0.8;;;;;;;34;30.42871;936.6066;;;;
2020/06/30 07:29:21;;;;;;;1.4;0.6;;;;;;;33.77;30.91895;936.545;;;;
2020/06/30 07:31:46;;;;;;;1.4;0.6;;;;;;;34.81;29.62695;936.5475;;;;
2020/06/30 07:34:13;;;;;;;1.1;0.5;;;;;;;34.53;31.32031;936.5689;;;;
2020/06/30 07:36:38;;;;;;;1;0.6;;;;;;;33.95;32.49609;936.5123;;;;
2020/06/30 07:39:04;;;;;;;1.6;0.7;;;;;;;32.42;34.61816;936.4747;;;;
2020/06/30 07:41:29;;;;;;;3.2;0.6;;;;;;;31.17;37.76465;936.4939;;;;
2020/06/30 07:43:54;;;;;;;1.7;0.6;;;;;;;30.87;38.55273;936.4679;;;;
2020/06/30 07:46:19;;;;;;;3.1;0.5;;;;;;;30.54;39.93457;936.4838;;;;
2020/06/30 07:48:44;;;;;;;2.7;0.6;;;;;;;30.14;38.8252;936.5131;;;;
2020/06/30 07:51:09;;;;;;;2.1;0.7;;;;;;;30.47;39.36621;936.4811;;;;
2020/06/30 07:53:34;;;;;;;1.5;0.7;;;;;;;31.56;38.48047;936.4465;;;;
2020/06/30 07:56:00;;;;;;;1.9;0.6;;;;;;;32.38;34.11133;936.4587;;;;
2020/06/30 07:58:25;;;;;;;4.1;0.8;;;;;;;31.19;37.25293;936.4084;;;;
2020/06/30 08:00:50;;;;;;;1;0.6;;;;;;;30.7;36.16113;936.4196;;;;
2020/06/30 08:03:15;;;;;;;5.9;0.7;;;;;;;29.78;42.59766;936.3953;;;;
2020/06/30 08:05:40;;;;;;;2.5;0.6;;;;;;;29.56;43.10254;936.4276;;;;
2020/06/30 08:08:06;;;;;;;3;0.8;;;;;;;31.83;36.22656;936.2981;;;;
2020/06/30 08:10:31;;;;;;;2.6;0.7;;;;;;;32.04;35.10449;936.257;;;;
2020/06/30 08:12:57;;;;;;;1.3;0.7;;;;;;;31.55;36.94629;936.3041;;;;
2020/06/30 08:15:23;;;;;;;3.6;0.7;;;;;;;32.67;35.18945;936.2776;;;;
2020/06/30 08:17:48;;;;;;;2.6;0.7;;;;;;;34.06;32.31152;936.2704;;;;
2020/06/30 08:20:14;;;;;;;5.7;0.7;;;;;;;33.99;31.53613;936.2769;;;;
2020/06/30 08:22:39;;;;;;;1.9;0.5;;;;;;;34.38;34.17773;936.2506;;;;
2020/06/30 08:25:04;;;;;;;2.2;0.5;;;;;;;34.64;33.3291;936.2414;;;;
2020/06/30 08:27:29;;;;;;;1.7;0.6;;;;;;;34.22;33.10547;936.2255;;;;
2020/06/30 08:29:58;;;;;;;2.5;0.5;;;;;;;34;33.17383;936.1891;;;;
2020/06/30 08:32:24;;;;;;;1.2;0.6;;;;;;;35.35;31.24414;936.1501;;;;
2020/06/30 08:34:49;;;;;;;1.6;0.6;;;;;;;35.64;30.9502;936.1169;;;;
2020/06/30 08:37:15;;;;;;;1;0.4;;;;;;;35.59;30.34277;936.0904;;;;
2020/06/30 08:39:40;;;;;;;1.8;0.6;;;;;;;35.51;30.42188;936.0569;;;;
2020/06/30 08:42:06;;;;;;;1.3;0.7;;;;;;;35.46;31.79492;936.0446;;;;
2020/06/30 08:44:31;;;;;;;1.6;0.6;;;;;;;35.36;29.80762;935.9824;;;;
2020/06/30 08:46:58;;;;;;;0.9;0.5;;;;;;;34.97;32.40039;935.9911;;;;
2020/06/30 08:49:23;;;;;;;1.1;0.6;;;;;;;35.02;31.51074;936.0042;;;;
2020/06/30 08:51:48;;;;;;;3.8;0.6;;;;;;;34.25;33.03516;936.0131;;;;
2020/06/30 08:54:14;;;;;;;1.1;0.7;;;;;;;34.87;30.66797;935.95;;;;
2020/06/30 08:56:41;;;;;;;5.3;0.7;;;;;;;35.06;31.93555;935.9047;;;;
2020/06/30 08:59:06;;;;;;;1.3;0.7;;;;;;;35.04;32.15234;935.8326;;;;
2020/06/30 09:01:31;;;;;;;2.6;0.7;;;;;;;34.63;32.37695;935.827;;;;
2020/06/30 09:03:57;;;;;;;1.4;0.5;;;;;;;34.5;31.46289;935.8569;;;;
2020/06/30 09:06:22;;;;;;;1.4;0.6;;;;;;;33.91;33.8418;935.8306;;;;
2020/06/30 09:08:47;;;;;;;1.5;0.6;;;;;;;34.04;32.1543;935.837;;;;
2020/06/30 09:11:12;;;;;;;1.4;0.6;;;;;;;33.8;34.02637;935.7916;;;;
2020/06/30 09:13:39;;;;;;;1;0.7;;;;;;;33.59;33.44434;935.7913;;;;
2020/06/30 09:16:04;;;;;;;4.2;0.7;;;;;;;33.23;35.49805;935.8408;;;;
2020/06/30 09:18:30;;;;;;;1.4;0.7;;;;;;;32.77;34.06836;935.7991;;;;
2020/06/30 09:20:55;;;;;;;2.7;0.6;;;;;;;32.81;36.66602;935.8078;;;;
2020/06/30 09:23:20;;;;;;;3.1;0.8;;;;;;;31.96;37.30273;935.778;;;;
2020/06/30 09:25:45;;;;;;;1.5;0.8;;;;;;;31.68;36.62109;935.7545;;;;
2020/06/30 09:28:10;;;;;;;2.8;0.9;;;;;;;31.46;36.72363;935.6739;;;;
2020/06/30 09:30:36;;;;;;;2.7;0.8;;;;;;;31.56;36.92285;935.6358;;;;
2020/06/30 09:33:01;;;;;;;2.7;0.9;;;;;;;31.66;38.7168;935.6619;;;;
2020/06/30 09:35:26;;;;;;;2.5;0.8;;;;;;;31.64;37.5293;935.6848;;;;
2020/06/30 09:37:51;;;;;;;3.6;0.8;;;;;;;31.73;38.39941;935.6699;;;;
2020/06/30 09:40:16;;;;;;;3.2;0.8;;;;;;;31.54;38.76563;935.6088;;;;
2020/06/30 09:42:42;;;;;;;2.4;0.8;;;;;;;31.35;38.91699;935.6451;;;;
2020/06/30 09:45:08;;;;;;;2.1;0.8;;;;;;;31.43;37.70215;935.5765;;;;
2020/06/30 09:47:35;;;;;;;1.4;0.6;;;;;;;31.38;38.1416;935.546;;;;
2020/06/30 09:50:00;;;;;;;1.5;0.7;;;;;;;30.81;39.45605;935.5491;;;;
2020/06/30 09:52:26;;;;;;;3.2;0.9;;;;;;;30.85;40.09375;935.5435;;;;
2020/06/30 09:54:51;;;;;;;2.6;0.6;;;;;;;31.05;38.71094;935.5553;;;;
2020/06/30 09:57:16;;;;;;;2.9;0.8;;;;;;;30.9;39.7998;935.4844;;;;
2020/06/30 09:59:41;;;;;;;1.4;0.7;;;;;;;31.08;38.5;935.5016;;;;
2020/06/30 10:02:06;;;;;;;1.2;0.6;;;;;;;31.26;37.72461;935.4938;;;;
2020/06/30 10:04:32;;;;;;;2.2;0.9;;;;;;;31.07;38.53418;935.4277;;;;
2020/06/30 10:06:58;;;;;;;2.6;0.8;;;;;;;30.74;38.1123;935.4185;;;;
2020/06/30 10:09:24;;;;;;;1.1;0.7;;;;;;;30.53;40.26758;935.3777;;;;
2020/06/30 10:11:49;;;;;;;4.9;0.8;;;;;;;30.07;41.70703;935.3209;;;;
2020/06/30 10:14:16;;;;;;;2.6;0.7;;;;;;;29.9;43.62305;935.3198;;;;
2020/06/30 10:16:41;;;;;;;2.1;0.6;;;;;;;29.77;42.33496;935.3547;;;;
2020/06/30 10:19:07;;;;;;;2.9;0.6;;;;;;;29.59;43.68848;935.353;;;;
2020/06/30 10:21:32;;;;;;;1.2;0.7;;;;;;;29.36;42.35645;935.2753;;;;
2020/06/30 10:23:58;;;;;;;2;0.7;;;;;;;29.46;42.60449;935.3041;;;;
2020/06/30 10:26:23;;;;;;;3.6;0.7;;;;;;;29.38;42.75098;935.3081;;;;
2020/06/30 10:28:52;;;;;;;4.1;0.7;;;;;;;28.75;44.30957;935.3427;;;;
2020/06/30 10:31:18;;;;;;;2.1;0.7;;;;;;;28.9;44.62207;935.2731;;;;
2020/06/30 10:33:42;;;;;;;1.9;0.7;;;;;;;29.2;41.75879;935.2582;;;;
2020/06/30 10:36:08;;;;;;;1.6;0.6;;;;;;;29.54;43.14746;935.2427;;;;
2020/06/30 10:38:33;;;;;;;1.4;0.7;;;;;;;29.69;42.67285;935.142;;;;
2020/06/30 10:40:58;;;;;;;2.1;0.8;;;;;;;29.85;41.35254;935.0958;;;;
2020/06/30 10:43:24;;;;;;;1;0.7;;;;;;;29.91;41.94238;935.1194;;;;
2020/06/30 10:45:49;;;;;;;2.6;0.8;;;;;;;29.93;44.05566;935.0631;;;;
2020/06/30 10:48:16;;;;;;;1.2;0.7;;;;;;;29.94;42.54199;935.0499;;;;
2020/06/30 10:50:41;;;;;;;2.5;1;;;;;;;29.54;43.25586;935.0184;;;;
2020/06/30 10:53:06;;;;;;;4.5;0.9;;;;;;;29.7;43.60352;935.0209;;;;
2020/06/30 10:55:31;;;;;;;1.4;0.7;;;;;;;29.66;41.35938;935.0112;;;;
2020/06/30 10:57:56;;;;;;;2.1;0.7;;;;;;;29.66;44.00586;934.9964;;;;
2020/06/30 11:00:26;;;;;;;2.1;0.7;;;;;;;29.94;41.89746;934.999;;;;
2020/06/30 11:02:51;;;;;;;2.4;0.8;;;;;;;30.03;41.83398;934.9666;;;;
2020/06/30 11:05:16;;;;;;;2.2;0.8;;;;;;;30.01;41.22461;934.9135;;;;
2020/06/30 11:07:41;;;;;;;1.3;0.8;;;;;;;30.09;43.67773;934.8658;;;;
2020/06/30 11:10:10;;;;;;;1.7;0.7;;;;;;;30.27;41.52246;934.9196;;;;
2020/06/30 11:12:37;;;;;;;2.7;0.7;;;;;;;30.31;41.40625;934.9002;;;;
2020/06/30 11:15:02;;;;;;;0.6;0.6;;;;;;;30.26;41.04395;934.8491;;;;
2020/06/30 11:17:28;;;;;;;3.8;0.8;;;;;;;30.09;41.36328;934.8083;;;;
2020/06/30 11:19:53;;;;;;;2.2;1;;;;;;;29.78;41.91797;934.916;;;;
2020/06/30 11:22:20;;;;;;;6.6;1.7;;;;;;;29.6;42.61816;934.8303;;;;
2020/06/30 11:24:45;;;;;;;2.3;1.1;;;;;;;29.68;41.38477;934.8177;;;;
2020/06/30 11:27:11;;;;;;;3.7;1.5;;;;;;;29.66;42.83789;934.8826;;;;
2020/06/30 11:29:36;;;;;;;4;1.1;;;;;;;29.58;42.94922;934.8322;;;;
2020/06/30 11:32:03;;;;;;;2.8;1.3;;;;;;;29.48;43.22559;934.7693;;;;
2020/06/30 11:34:28;;;;;;;2.3;1.1;;;;;;;29.44;45.03223;934.7391;;;;
2020/06/30 11:36:53;;;;;;;2.9;1.1;;;;;;;29.28;42.62305;934.7366;;;;
2020/06/30 11:39:19;;;;;;;2.2;0.9;;;;;;;29.33;43.55664;934.6799;;;;
2020/06/30 11:41:44;;;;;;;3.9;1.5;;;;;;;29.26;43.7998;934.6986;;;;
2020/06/30 11:44:09;;;;;;;2.3;0.9;;;;;;;29.13;43.26367;934.6719;;;;
2020/06/30 11:46:34;;;;;;;2.6;1.3;;;;;;;29.07;45.50879;934.6301;;;;
2020/06/30 11:49:01;;;;;;;3.1;1.7;;;;;;;29.21;45.3916;934.6578;;;;
2020/06/30 11:51:26;;;;;;;3.2;1.2;;;;;;;29.19;44.30566;934.6667;;;;
2020/06/30 11:53:53;;;;;;;2;1.2;;;;;;;29.16;44.67188;934.6317;;;;
2020/06/30 11:56:17;;;;;;;2.5;0.9;;;;;;;29.3;43.94727;934.598;;;;
2020/06/30 11:58:44;;;;;;;4.6;1.1;;;;;;;29.53;43.50488;934.5613;;;;
2020/06/30 12:01:09;;;;;;;3.4;1.1;;;;;;;29.3;43.95996;934.5291;;;;
2020/06/30 12:03:35;;;;;;;2.1;1.2;;;;;;;29.34;45.07031;934.4878;;;;
2020/06/30 12:06:00;;;;;;;1.9;0.9;;;;;;;29.35;43.21289;934.4861;;;;
2020/06/30 12:08:27;;;;;;;2.1;0.9;;;;;;;29.23;46.26367;934.468;;;;
2020/06/30 12:10:52;;;;;;;2;1;;;;;;;29.42;43.93457;934.4727;;;;
2020/06/30 12:13:18;;;;;;;2.3;0.9;;;;;;;29.41;43.70703;934.472;;;;
2020/06/30 12:15:44;;;;;;;3.5;1;;;;;;;29.31;44.71094;934.483;;;;
2020/06/30 12:18:09;;;;;;;2.9;1;;;;;;;29.39;43.95605;934.4564;;;;
2020/06/30 12:20:34;;;;;;;1.3;0.8;;;;;;;29.25;44.20313;934.4247;;;;
2020/06/30 12:23:01;;;;;;;1.9;0.9;;;;;;;29.29;42.12305;934.3683;;;;
2020/06/30 12:25:26;;;;;;;4.7;1;;;;;;;29.04;45.79102;934.4017;;;;
2020/06/30 12:27:52;;;;;;;2.5;0.9;;;;;;;29.04;43.62402;934.3836;;;;
2020/06/30 12:30:17;;;;;;;3.3;0.9;;;;;;;28.78;44.72949;934.3552;;;;
2020/06/30 12:32:43;;;;;;;2.2;1;;;;;;;28.5;46.69922;934.3995;;;;
2020/06/30 12:35:12;;;;;;;3.1;1.2;;;;;;;28.55;46.97852;934.3883;;;;
2020/06/30 12:37:37;;;;;;;3.9;0.9;;;;;;;28.7;47.55176;934.4517;;;;
2020/06/30 12:40:03;;;;;;;3.1;1.1;;;;;;;28.7;44.74512;934.3678;;;;
2020/06/30 12:42:29;;;;;;;2.2;0.9;;;;;;;28.7;45.83887;934.3469;;;;
2020/06/30 12:44:54;;;;;;;2.3;0.9;;;;;;;28.84;46.23438;934.3942;;;;
2020/06/30 12:47:23;;;;;;;2.5;0.9;;;;;;;28.78;45.66895;934.4146;;;;
2020/06/30 12:49:48;;;;;;;1.7;0.9;;;;;;;28.88;45.16699;934.3688;;;;
2020/06/30 12:52:13;;;;;;;2.3;0.9;;;;;;;28.97;45.42676;934.403;;;;
2020/06/30 12:54:39;;;;;;;2.2;0.9;;;;;;;28.84;44.42578;934.3477;;;;
2020/06/30 12:57:05;;;;;;;2.4;0.9;;;;;;;28.74;44.28516;934.3113;;;;
2020/06/30 12:59:30;;;;;;;2.3;1;;;;;;;28.71;45.93555;934.3265;;;;
2020/06/30 13:01:56;;;;;;;2.5;0.8;;;;;;;28.85;45.41406;934.3438;;;;
2020/06/30 13:04:21;;;;;;;4.8;1;;;;;;;28.52;45.08301;934.3054;;;;
2020/06/30 13:06:47;;;;;;;6.1;1;;;;;;;28.22;46.53906;934.3089;;;;
2020/06/30 13:09:12;;;;;;;3.3;0.9;;;;;;;27.93;46.6875;934.3258;;;;
2020/06/30 13:11:40;;;;;;;4.6;0.9;;;;;;;28.09;47.29785;934.308;;;;
2020/06/30 13:14:05;;;;;;;2.3;0.7;;;;;;;28.09;46.13379;934.2278;;;;
2020/06/30 13:16:33;;;;;;;3.4;1.1;;;;;;;28.06;47.47363;934.2111;;;;
2020/06/30 13:18:58;;;;;;;4.9;1;;;;;;;27.92;46.37793;934.2338;;;;
2020/06/30 13:21:24;;;;;;;5.8;1.2;;;;;;;27.84;47.45117;934.2573;;;;
2020/06/30 13:23:49;;;;;;;2;0.9;;;;;;;27.75;47.03613;934.3148;;;;
2020/06/30 13:26:15;;;;;;;1.8;0.9;;;;;;;27.83;47.86426;934.2933;;;;
2020/06/30 13:28:40;;;;;;;1.7;0.9;;;;;;;27.84;46.80957;934.2606;;;;
2020/06/30 13:31:09;;;;;;;2.4;1.1;;;;;;;27.88;47.08594;934.2672;;;;
2020/06/30 13:33:34;;;;;;;1.3;1;;;;;;;27.91;48.69238;934.2541;;;;
2020/06/30 13:36:03;;;;;;;3.3;1.1;;;;;;;27.84;47.2373;934.2263;;;;
2020/06/30 13:38:30;;;;;;;4.6;1.2;;;;;;;27.87;47.80957;934.2469;;;;
2020/06/30 13:40:55;;;;;;;2.7;0.9;;;;;;;27.82;46.55859;934.2289;;;;
2020/06/30 13:43:20;;;;;;;1.9;1;;;;;;;27.89;47.39648;934.2406;;;;
2020/06/30 13:45:45;;;;;;;3.7;1.1;;;;;;;27.87;46.95508;934.2419;;;;
2020/06/30 13:48:12;;;;;;;2.9;1.1;;;;;;;27.89;48.17969;934.2986;;;;
2020/06/30 13:50:37;;;;;;;7.1;1.5;;;;;;;27.85;48.60352;934.2505;;;;
2020/06/30 13:53:07;;;;;;;4.4;1.5;;;;;;;27.76;48.85449;934.296;;;;
2020/06/30 13:55:34;;;;;;;6.3;1.4;;;;;;;27.72;48.17383;934.3508;;;;
2020/06/30 13:57:59;;;;;;;2.1;0.9;;;;;;;27.58;47.61328;934.3295;;;;
2020/06/30 14:00:30;;;;;;;3.9;1.1;;;;;;;27.57;46.95898;934.3572;;;;
2020/06/30 14:02:55;;;;;;;3.1;1;;;;;;;27.54;47.2998;934.3036;;;;
2020/06/30 14:05:21;;;;;;;1.6;0.9;;;;;;;27.35;47.4707;934.2994;;;;
2020/06/30 14:07:46;;;;;;;3.7;1.2;;;;;;;27.13;49.12988;934.253;;;;
2020/06/30 14:10:12;;;;;;;6.1;1.3;;;;;;;27.09;49.7666;934.2466;;;;
2020/06/30 14:12:37;;;;;;;4.6;1;;;;;;;27.24;47.50586;934.2775;;;;
2020/06/30 14:15:02;;;;;;;4.7;1;;;;;;;27.3;48.7334;934.2747;;;;
2020/06/30 14:17:27;;;;;;;1.5;1;;;;;;;27.47;48.62207;934.2308;;;;
2020/06/30 14:19:53;;;;;;;3.9;1;;;;;;;27.49;48.64844;934.1805;;;;